Terminal Aerodrome Forecast
Issued by NWS

Home | Current Version | Previous Version | Text Only | Print | Product List | Glossary On
Versions: 1 2 3 4 5 6 7 8 9 10 11 12 13 14
000
FTUS46 KLOX 031300 AAA
TAFBUR
TAF AMD
KBUR 031302Z 0313/0412 VRB03KT P6SM SCT015
     FM031400 VRB03KT P6SM BKN015
     FM031700 14006KT P6SM BKN021
     FM031900 18008KT P6SM SCT025
     FM040300 12006KT P6SM SKC
     FM040400 17006KT P6SM OVC015
     FM040700 VRB03KT P6SM OVC020=

USA.gov is the U.S. government's official web portal to all federal, state and local government web resources and services.